Time;durP1;ratioP1;P1;durP2;ratioP2;P2;SDS_P1;SDS_P2;PMS_P1;PMS_P2;Temp;Humidity;BMP_temperature;BMP_pressure;BME280_temperature;BME280_humidity;BME280_pressure;Samples;Min_cycle;Max_cycle;Signal;HPM_P1;HPM_P2
2022/09/24 00:00:52;;;;;;;76.43;53.55;;;;;;;28.00;80.51;97904.75;4987563;28;20137;-69
2022/09/24 00:03:40;;;;;;;80.25;51.83;;;;;;;27.92;80.70;97914.78;4988012;28;20120;-68
2022/09/24 00:06:23;;;;;;;70.90;52.15;;;;;;;28.02;80.20;97913.47;4987707;28;20052;-68
2022/09/24 00:09:11;;;;;;;80.38;53.10;;;;;;;27.98;80.29;97918.09;4987855;28;20057;-68
2022/09/24 00:11:53;;;;;;;76.65;53.70;;;;;;;27.85;80.51;97919.25;4988184;28;20051;-69
2022/09/24 00:14:42;;;;;;;77.68;55.50;;;;;;;27.92;80.43;97925.00;4988527;28;20058;-68
2022/09/24 00:17:24;;;;;;;77.85;54.67;;;;;;;27.97;80.56;97921.19;4987387;28;20082;-69
2022/09/24 00:20:14;;;;;;;81.55;53.95;;;;;;;28.03;80.02;97930.81;4987552;28;20046;-69
2022/09/24 00:22:56;;;;;;;77.43;54.47;;;;;;;28.15;79.78;97930.81;4987663;28;20070;-71
2022/09/24 00:28:51;;;;;;;80.45;54.42;;;;;;;27.86;80.42;97954.75;4987319;28;20050;-69
2022/09/24 00:31:40;;;;;;;74.55;53.30;;;;;;;27.83;80.74;97954.63;4986289;28;20117;-68
2022/09/24 00:34:23;;;;;;;71.95;51.88;;;;;;;27.97;80.48;97957.84;4998058;28;20068;-68
2022/09/24 00:37:11;;;;;;;77.18;52.22;;;;;;;28.02;80.25;97954.84;5018229;28;20077;-69
2022/09/24 00:40:00;;;;;;;69.95;49.75;;;;;;;27.67;81.44;97965.56;5006928;28;20045;-68
2022/09/24 00:42:49;;;;;;;66.22;45.35;;;;;;;27.44;82.20;97977.03;4992069;28;20052;-69
2022/09/24 00:45:31;;;;;;;67.22;45.63;;;;;;;27.13;83.83;97989.38;5007285;28;20477;-69
2022/09/24 00:48:21;;;;;;;62.78;44.65;;;;;;;27.15;84.29;97995.34;5005898;28;20054;-68
2022/09/24 00:51:04;;;;;;;60.40;43.15;;;;;;;27.53;82.90;98005.31;5006986;28;20389;-68
2022/09/24 00:53:59;;;;;;;53.95;37.88;;;;;;;27.34;83.29;98007.78;5006241;28;20069;-69
2022/09/24 00:56:56;;;;;;;46.05;33.90;;;;;;;27.06;83.16;98010.34;4988819;28;20402;-68
2022/09/24 00:59:33;;;;;;;40.08;28.48;;;;;;;27.17;83.16;98016.22;5006382;28;20054;-69
2022/09/24 01:02:27;;;;;;;39.42;26.58;;;;;;;27.11;83.02;98021.13;5005199;28;20065;-68
2022/09/24 01:05:04;;;;;;;36.90;24.50;;;;;;;26.91;83.48;98033.81;5006327;28;20052;-67
2022/09/24 01:07:53;;;;;;;29.23;22.80;;;;;;;27.44;82.33;98028.56;5006529;28;20485;-68
2022/09/24 01:10:58;;;;;;;35.58;22.63;;;;;;;27.22;82.98;98029.78;4989914;28;20057;-68
2022/09/24 01:14:14;;;;;;;29.88;22.17;;;;;;;27.37;82.58;98042.13;4998514;28;20076;-68
2022/09/24 01:17:38;;;;;;;23.80;18.58;;;;;;;27.37;81.83;98037.41;5006075;28;20049;-69
2022/09/24 01:20:35;;;;;;;18.45;13.20;;;;;;;27.24;81.77;98044.03;4998775;28;20053;-67
2022/09/24 01:23:47;;;;;;;14.95;10.70;;;;;;;27.25;81.63;98051.19;5006034;28;20057;-68
2022/09/24 01:26:37;;;;;;;14.15;9.27;;;;;;;27.24;81.21;98055.84;5005222;28;20050;-69
2022/09/24 01:29:31;;;;;;;11.43;7.50;;;;;;;26.90;82.08;98056.97;5005566;28;20133;-68
2022/09/24 01:32:45;;;;;;;9.10;6.07;;;;;;;26.96;82.07;98066.63;5005738;28;20468;-68
2022/09/24 01:35:48;;;;;;;6.20;4.40;;;;;;;26.82;81.93;98071.63;5007008;28;20369;-68
2022/09/24 01:38:40;;;;;;;7.22;3.90;;;;;;;26.95;81.26;98087.06;5010404;28;20050;-68
2022/09/24 01:41:23;;;;;;;5.63;3.78;;;;;;;27.03;81.41;98086.19;5005676;28;20590;-69
2022/09/24 01:44:12;;;;;;;3.97;2.90;;;;;;;26.51;82.25;98087.38;5005576;28;20146;-68
2022/09/24 01:46:55;;;;;;;3.65;3.13;;;;;;;26.82;82.35;98096.41;5006212;28;20481;-68
2022/09/24 01:49:43;;;;;;;4.97;3.42;;;;;;;26.48;83.77;98101.00;5005897;28;20063;-68
2022/09/24 01:52:34;;;;;;;4.75;2.88;;;;;;;26.67;83.55;98109.63;5005624;28;20053;-68
2022/09/24 01:55:28;;;;;;;3.40;2.75;;;;;;;26.59;83.48;98116.00;4998752;28;20049;-68
2022/09/24 01:58:28;;;;;;;2.92;2.22;;;;;;;26.64;83.73;98118.56;5005166;28;20116;-68
2022/09/24 02:01:16;;;;;;;3.85;3.15;;;;;;;26.46;84.14;98119.78;4988314;28;20065;-68
2022/09/24 02:04:12;;;;;;;6.70;2.97;;;;;;;26.77;83.64;98124.97;5006111;28;20127;-68
2022/09/24 02:07:05;;;;;;;4.43;2.85;;;;;;;26.72;83.82;98123.19;5005221;28;20054;-69
2022/09/24 02:09:53;;;;;;;6.00;3.25;;;;;;;26.45;85.32;98134.69;4987917;28;20104;-69
2022/09/24 02:12:43;;;;;;;9.10;3.00;;;;;;;26.48;84.99;98136.78;5005005;28;20485;-69
2022/09/24 02:15:38;;;;;;;7.82;3.47;;;;;;;26.34;86.23;98135.06;4998970;28;20052;-69
2022/09/24 02:18:26;;;;;;;4.25;3.03;;;;;;;26.47;85.31;98133.22;5005060;28;20046;-68
2022/09/24 02:21:17;;;;;;;3.85;3.03;;;;;;;26.22;86.03;98129.47;4997854;28;20049;-68
2022/09/24 02:24:21;;;;;;;6.18;3.20;;;;;;;26.39;85.38;98125.84;5009719;28;20556;-68
2022/09/24 02:27:10;;;;;;;5.93;3.83;;;;;;;26.32;85.80;98131.84;4991322;28;20104;-69
2022/09/24 02:29:53;;;;;;;5.25;4.00;;;;;;;26.19;85.48;98130.13;5010297;28;20053;-69
2022/09/24 02:32:43;;;;;;;4.53;3.50;;;;;;;26.12;86.05;98127.09;4989198;28;20042;-68
2022/09/24 02:35:39;;;;;;;5.90;3.72;;;;;;;26.23;85.43;98128.34;4987189;28;20066;-69
2022/09/24 02:38:28;;;;;;;5.97;3.65;;;;;;;25.80;86.62;98129.31;4989266;28;20058;-69
2022/09/24 02:41:11;;;;;;;5.75;3.63;;;;;;;26.29;85.72;98129.78;4989275;28;20800;-69
2022/09/24 02:44:01;;;;;;;5.22;3.25;;;;;;;26.04;85.31;98126.00;4989772;28;20677;-69
2022/09/24 02:46:42;;;;;;;5.60;3.50;;;;;;;26.24;85.48;98127.22;4988978;28;20112;-68
2022/09/24 02:49:31;;;;;;;5.47;3.25;;;;;;;26.20;85.62;98118.00;4989458;28;20152;-68
2022/09/24 02:52:14;;;;;;;3.30;3.00;;;;;;;26.29;84.81;98127.03;4990684;28;20755;-68
2022/09/24 02:55:03;;;;;;;4.72;3.03;;;;;;;26.26;84.05;98132.38;4988729;28;20100;-69
2022/09/24 02:57:53;;;;;;;4.00;2.53;;;;;;;26.38;83.41;98127.75;4992102;28;20644;-69
2022/09/24 03:00:42;;;;;;;3.50;2.25;;;;;;;26.40;83.60;98134.88;5008430;28;20049;-68
2022/09/24 03:03:24;;;;;;;3.50;2.28;;;;;;;26.07;84.60;98124.53;5008553;28;20151;-69
2022/09/24 03:06:14;;;;;;;3.60;2.28;;;;;;;26.28;83.95;98130.91;5008127;28;20046;-70
2022/09/24 03:08:55;;;;;;;2.90;2.22;;;;;;;26.27;83.65;98132.06;5008916;28;20054;-69
2022/09/24 03:11:46;;;;;;;5.47;2.17;;;;;;;26.03;84.20;98129.09;4989062;28;20053;-69
2022/09/24 03:14:35;;;;;;;4.10;2.28;;;;;;;26.32;83.98;98123.59;4988241;28;20541;-68
2022/09/24 03:17:16;;;;;;;2.50;2.08;;;;;;;26.53;83.05;98123.63;4988021;28;20501;-68
2022/09/24 03:20:05;;;;;;;5.63;2.40;;;;;;;26.38;82.98;98125.00;4988895;28;20061;-67
2022/09/24 03:22:51;;;;;;;4.45;2.70;;;;;;;26.33;83.57;98133.47;4988634;28;20166;-68
2022/09/24 03:25:39;;;;;;;3.95;2.50;;;;;;;26.73;83.67;98127.56;5002837;28;20077;-67
2022/09/24 03:28:22;;;;;;;3.90;2.42;;;;;;;26.58;83.28;98130.91;5007097;28;20084;-67
2022/09/24 03:31:11;;;;;;;3.55;2.75;;;;;;;26.60;83.48;98134.16;5007960;28;20135;-67
2022/09/24 03:34:05;;;;;;;5.00;3.40;;;;;;;26.33;83.05;98130.72;5008549;28;20844;-66
2022/09/24 03:36:54;;;;;;;4.40;2.92;;;;;;;26.70;83.88;98133.75;4988014;28;20050;-67
2022/09/24 03:39:43;;;;;;;4.60;3.00;;;;;;;26.82;83.89;98119.25;4988116;28;20046;-67
2022/09/24 03:42:25;;;;;;;3.90;2.53;;;;;;;26.85;83.81;98113.06;4987770;28;20054;-67
2022/09/24 03:45:15;;;;;;;4.22;2.92;;;;;;;26.59;83.85;98117.94;4987812;28;20065;-67
2022/09/24 03:47:57;;;;;;;4.05;2.92;;;;;;;26.73;84.53;98122.06;4988188;28;20057;-66
2022/09/24 03:50:46;;;;;;;3.53;2.28;;;;;;;26.78;83.82;98117.50;4987989;28;20058;-66
2022/09/24 03:53:28;;;;;;;2.72;2.25;;;;;;;26.88;82.80;98115.13;5007014;28;20485;-66
2022/09/24 03:56:17;;;;;;;3.20;2.30;;;;;;;26.80;83.00;98112.47;4999380;28;20057;-67
2022/09/24 03:59:14;;;;;;;3.33;2.00;;;;;;;27.06;83.20;98120.53;4987553;28;20058;-66
2022/09/24 04:01:50;;;;;;;3.55;2.40;;;;;;;27.06;81.79;98121.31;4987470;28;20116;-66
2022/09/24 04:04:44;;;;;;;3.58;2.10;;;;;;;26.93;83.08;98114.94;4987687;28;20062;-66
2022/09/24 04:07:20;;;;;;;4.13;2.90;;;;;;;27.03;82.95;98110.97;4987177;28;20065;-66
2022/09/24 04:10:15;;;;;;;6.53;3.55;;;;;;;27.25;81.91;98112.59;4987538;28;20053;-66
2022/09/24 04:12:54;;;;;;;10.20;3.83;;;;;;;27.15;83.04;98108.28;4987268;28;20788;-66
2022/09/24 04:15:50;;;;;;;8.50;4.53;;;;;;;27.35;82.59;98116.88;4987402;28;20456;-66
2022/09/24 04:18:26;;;;;;;8.05;4.78;;;;;;;27.56;81.32;98108.53;5026392;28;20556;-66
2022/09/24 04:21:18;;;;;;;8.98;5.05;;;;;;;27.50;82.13;98112.66;5026439;28;20539;-67
2022/09/24 04:24:07;;;;;;;7.68;5.25;;;;;;;27.80;81.45;98105.03;5025264;28;20057;-66
2022/09/24 04:26:49;;;;;;;9.88;6.03;;;;;;;27.71;80.72;98101.56;5006695;28;20046;-67
2022/09/24 04:29:38;;;;;;;9.93;6.32;;;;;;;27.89;80.73;98102.19;5004956;28;20050;-66
2022/09/24 04:32:27;;;;;;;8.40;6.65;;;;;;;27.89;80.49;98097.44;4987073;28;20141;-65
2022/09/24 04:35:09;;;;;;;8.30;7.05;;;;;;;27.88;81.23;98095.88;4989226;28;20054;-66
2022/09/24 04:37:59;;;;;;;13.48;9.70;;;;;;;27.84;80.71;98100.44;4987421;28;20063;-66
2022/09/24 04:40:41;;;;;;;11.20;8.88;;;;;;;27.80;79.91;98102.28;4987071;28;20054;-66
2022/09/24 04:43:36;;;;;;;11.30;9.07;;;;;;;27.97;79.83;98100.44;4986855;28;20057;-68
2022/09/24 04:46:12;;;;;;;10.57;8.10;;;;;;;27.94;80.04;98093.69;4986828;28;20069;-66
2022/09/24 04:49:01;;;;;;;8.85;7.32;;;;;;;27.95;80.34;98094.47;4987391;28;20730;-66
2022/09/24 04:51:43;;;;;;;11.18;7.03;;;;;;;27.97;79.61;98089.44;4986964;28;20683;-66
2022/09/24 04:54:32;;;;;;;8.88;6.63;;;;;;;27.94;79.71;98081.84;4971972;28;20054;-66
2022/09/24 04:57:14;;;;;;;8.63;6.25;;;;;;;28.23;80.25;98072.53;4983228;28;20046;-65
2022/09/24 05:00:06;;;;;;;8.20;5.65;;;;;;;28.28;78.08;98080.56;5004936;28;20441;-66
2022/09/24 05:03:02;;;;;;;9.07;5.43;;;;;;;28.39;77.98;98083.66;4991018;28;20077;-65
2022/09/24 05:05:51;;;;;;;6.57;5.38;;;;;;;28.44;77.11;98078.69;5006137;28;20054;-66
2022/09/24 05:08:33;;;;;;;8.10;5.32;;;;;;;28.54;77.05;98082.94;5006057;28;20064;-65
2022/09/24 05:11:28;;;;;;;7.65;4.95;;;;;;;28.54;77.75;98088.47;5007876;28;20108;-65
2022/09/24 05:14:04;;;;;;;10.68;5.30;;;;;;;28.37;76.39;98083.97;4969191;28;20054;-65
2022/09/24 05:17:08;;;;;;;12.85;6.00;;;;;;;28.30;77.57;98078.28;5005194;28;20050;-66
2022/09/24 05:20:00;;;;;;;6.95;6.00;;;;;;;28.50;77.63;98076.50;5006123;28;20579;-65
2022/09/24 05:22:49;;;;;;;6.75;5.70;;;;;;;28.69;76.96;98079.47;5005381;28;20045;-65
2022/09/24 05:28:41;;;;;;;8.02;5.15;;;;;;;28.97;78.16;98073.16;5005647;28;20042;-64
2022/09/24 05:31:30;;;;;;;9.98;6.43;;;;;;;28.96;78.30;98063.25;5005473;28;20062;-66
2022/09/24 05:34:25;;;;;;;8.68;6.35;;;;;;;29.00;76.27;98066.13;5001946;28;20153;-66
2022/09/24 05:37:14;;;;;;;7.40;5.63;;;;;;;28.98;74.97;98063.72;5007283;28;20099;-66
2022/09/24 05:43:18;;;;;;;10.60;6.90;;;;;;;29.02;75.00;98064.59;5005149;28;20068;-67
2022/09/24 05:45:55;;;;;;;11.70;6.72;;;;;;;29.13;76.79;98069.66;5005826;28;20141;-67
2022/09/24 05:48:50;;;;;;;8.70;6.97;;;;;;;29.37;79.07;98074.25;5005136;28;20123;-66
2022/09/24 05:51:26;;;;;;;10.15;7.28;;;;;;;29.18;78.06;98078.50;5005917;28;20052;-65
2022/09/24 05:54:18;;;;;;;9.75;6.43;;;;;;;28.99;76.34;98090.19;5004684;28;20053;-66
2022/09/24 05:57:06;;;;;;;10.63;6.47;;;;;;;29.37;77.30;98097.19;5001819;28;20064;-66
2022/09/24 05:59:48;;;;;;;8.65;6.70;;;;;;;29.20;75.51;98101.06;5007589;28;20057;-66
2022/09/24 06:02:45;;;;;;;11.88;7.60;;;;;;;29.17;74.73;98104.53;5008960;28;20143;-66
2022/09/24 06:05:27;;;;;;;10.20;6.72;;;;;;;29.33;75.13;98103.75;5009206;28;20136;-66
2022/09/24 06:08:16;;;;;;;9.30;6.70;;;;;;;29.17;74.00;98103.72;4993487;28;20053;-63
2022/09/24 06:11:01;;;;;;;12.07;7.07;;;;;;;29.24;76.40;98106.69;5006262;28;20069;-65
2022/09/24 06:13:52;;;;;;;9.45;6.80;;;;;;;29.38;73.72;98103.50;5005024;28;20239;-65
2022/09/24 06:16:35;;;;;;;7.60;6.18;;;;;;;29.18;73.28;98095.09;5007522;28;20057;-67
2022/09/24 06:19:23;;;;;;;7.82;5.50;;;;;;;29.03;74.41;98098.59;5006253;28;20104;-66
2022/09/24 06:22:13;;;;;;;10.82;5.72;;;;;;;29.34;73.57;98100.66;5008105;28;20418;-66
2022/09/24 06:24:55;;;;;;;9.85;6.15;;;;;;;29.41;72.50;98095.31;5008293;28;20057;-66
2022/09/24 06:27:44;;;;;;;8.27;6.90;;;;;;;29.47;72.28;98099.41;5006235;28;20106;-66
2022/09/24 06:30:43;;;;;;;16.58;8.57;;;;;;;28.85;72.14;98106.34;5005582;28;20050;-66
2022/09/24 06:33:26;;;;;;;10.68;7.97;;;;;;;29.19;73.20;98095.88;4991227;28;20054;-66
2022/09/24 06:36:21;;;;;;;11.13;9.05;;;;;;;28.77;73.69;98096.25;5007466;28;20133;-66
2022/09/24 06:38:58;;;;;;;14.10;9.25;;;;;;;29.00;73.53;98093.75;5006395;28;20100;-66
2022/09/24 06:41:48;;;;;;;15.02;10.02;;;;;;;28.89;73.76;98087.91;4999058;28;20537;-67
2022/09/24 06:44:36;;;;;;;16.23;11.23;;;;;;;29.07;74.75;98089.22;4978078;28;20050;-69
2022/09/24 06:47:25;;;;;;;31.92;18.67;;;;;;;28.96;73.39;98081.81;5003279;28;20042;-68
2022/09/24 06:50:14;;;;;;;28.80;17.23;;;;;;;29.14;74.11;98085.06;5003457;28;20355;-66
2022/09/24 06:52:57;;;;;;;37.78;25.25;;;;;;;28.64;74.09;98085.25;5007531;28;20056;-66
2022/09/24 06:55:45;;;;;;;50.33;33.03;;;;;;;28.71;74.25;98076.34;5006450;28;20050;-66
2022/09/24 06:58:28;;;;;;;67.57;37.90;;;;;;;28.72;76.65;98066.09;5002447;28;20145;-66
2022/09/24 07:01:16;;;;;;;63.47;41.22;;;;;;;28.92;75.66;98070.66;4997427;28;20604;-66
2022/09/24 07:03:58;;;;;;;67.10;45.05;;;;;;;29.08;75.13;98068.75;5004921;28;20132;-67
2022/09/24 07:09:47;;;;;;;69.95;43.95;;;;;;;28.54;74.99;98062.84;5004209;28;20398;-65
2022/09/24 07:12:38;;;;;;;62.58;42.72;;;;;;;29.11;75.15;98069.19;4990268;28;20049;-65
2022/09/24 07:15:27;;;;;;;63.75;43.15;;;;;;;29.09;75.04;98066.78;5004577;28;20056;-67
2022/09/24 07:18:17;;;;;;;58.83;37.50;;;;;;;28.79;76.29;98066.31;4992577;28;20085;-66
2022/09/24 07:20:59;;;;;;;57.13;39.60;;;;;;;29.18;75.60;98059.16;4994442;28;20042;-66
2022/09/24 07:23:48;;;;;;;31.95;21.40;;;;;;;28.87;75.18;98059.84;5002669;28;20073;-67
2022/09/24 07:26:35;;;;;;;19.05;12.18;;;;;;;28.76;75.05;98062.31;5002884;28;20125;-66
2022/09/24 07:29:24;;;;;;;9.88;6.47;;;;;;;28.55;75.96;98056.97;4990044;28;20054;-68
2022/09/24 07:32:23;;;;;;;6.28;4.47;;;;;;;28.65;75.01;98055.69;4985743;28;20148;-66
2022/09/24 07:35:17;;;;;;;6.78;3.03;;;;;;;28.82;74.52;98057.34;4994383;28;20143;-67
2022/09/24 07:38:17;;;;;;;5.32;2.25;;;;;;;28.73;74.25;98062.22;4985794;28;20061;-67
2022/09/24 07:40:57;;;;;;;3.20;2.53;;;;;;;29.16;73.82;98052.38;4999419;28;20061;-67
2022/09/24 07:43:54;;;;;;;4.05;1.80;;;;;;;28.93;73.60;98054.88;4985635;28;20081;-67
2022/09/24 07:46:30;;;;;;;2.38;1.20;;;;;;;28.81;73.01;98059.28;4986357;28;20069;-67
2022/09/24 07:49:20;;;;;;;1.40;1.30;;;;;;;28.59;72.63;98054.31;4998794;28;20049;-67
2022/09/24 07:52:02;;;;;;;2.25;1.23;;;;;;;28.52;72.57;98054.09;5005755;28;20046;-66
2022/09/24 07:54:58;;;;;;;2.63;1.30;;;;;;;28.82;72.60;98049.84;5005845;28;20042;-67
2022/09/24 07:57:34;;;;;;;2.42;1.48;;;;;;;28.87;72.82;98057.06;5005738;28;20041;-68
2022/09/24 08:00:31;;;;;;;4.72;2.00;;;;;;;28.76;73.34;98055.97;5005633;28;20046;-66
2022/09/24 08:03:07;;;;;;;3.03;1.35;;;;;;;28.19;74.34;98049.53;5005814;28;20064;-67
2022/09/24 08:05:58;;;;;;;3.28;1.55;;;;;;;28.57;74.44;98049.16;5006191;28;20441;-68
2022/09/24 08:08:42;;;;;;;1.95;1.50;;;;;;;28.41;74.99;98045.47;5005176;28;20052;-66
2022/09/24 08:11:38;;;;;;;2.22;1.88;;;;;;;28.65;74.45;98042.66;4968409;28;20061;-68
2022/09/24 08:14:14;;;;;;;1.63;1.52;;;;;;;28.60;75.08;98037.38;4999260;28;20045;-68
2022/09/24 08:17:04;;;;;;;2.03;1.52;;;;;;;28.74;73.13;98034.25;5000512;28;20054;-64
2022/09/24 08:19:55;;;;;;;2.05;1.63;;;;;;;28.80;72.91;98032.03;4986823;28;20078;-67
2022/09/24 08:22:38;;;;;;;3.97;1.38;;;;;;;28.59;72.65;98027.50;4986516;28;20046;-67
2022/09/24 08:25:26;;;;;;;4.25;1.70;;;;;;;28.94;73.02;98026.91;4999602;28;20064;-66
2022/09/24 08:28:15;;;;;;;2.72;1.90;;;;;;;28.65;73.28;98017.81;5007957;28;20049;-67
2022/09/24 08:31:07;;;;;;;2.55;1.80;;;;;;;28.66;74.62;98013.91;5006651;28;20053;-66
2022/09/24 08:33:49;;;;;;;2.70;2.05;;;;;;;28.72;74.34;97999.84;5006716;28;20381;-67
2022/09/24 08:36:44;;;;;;;3.65;2.20;;;;;;;28.96;75.40;98010.78;5006701;28;20050;-66
2022/09/24 08:39:20;;;;;;;2.05;1.80;;;;;;;28.83;75.54;98000.94;5005891;28;20120;-64
2022/09/24 08:42:57;;;;;;;3.78;2.08;;;;;;;28.55;76.16;97995.41;5006703;28;20057;-68
2022/09/24 08:49:07;;;;;;;3.35;2.28;;;;;;;28.57;77.14;97988.41;5006601;28;20319;-67
2022/09/24 08:52:06;;;;;;;2.90;2.40;;;;;;;28.87;77.28;97991.63;4991624;28;20105;-67
2022/09/24 08:55:01;;;;;;;5.50;2.60;;;;;;;29.08;77.68;97985.03;5006001;28;20056;-67
2022/09/24 08:58:07;;;;;;;17.08;2.53;;;;;;;28.96;76.78;97983.16;5003654;28;20064;-64
2022/09/24 09:01:16;;;;;;;2.92;2.33;;;;;;;28.09;80.32;97979.09;4986450;28;20046;-66
2022/09/24 09:04:35;;;;;;;4.60;3.40;;;;;;;28.21;80.15;97981.81;4976618;28;20057;-65
2022/09/24 09:07:30;;;;;;;5.60;3.83;;;;;;;28.11;80.44;97979.56;5004616;28;20124;-66
2022/09/24 09:10:30;;;;;;;8.23;5.50;;;;;;;28.40;78.51;97977.63;5000410;28;20065;-66
2022/09/24 09:14:02;;;;;;;7.05;5.65;;;;;;;28.52;79.31;97974.84;5004747;28;20112;-64
2022/09/24 09:17:04;;;;;;;7.60;5.85;;;;;;;28.46;78.72;97973.47;4906641;29;20070;-66
2022/09/24 09:20:04;;;;;;;8.32;5.60;;;;;;;28.46;78.88;97965.19;4906913;29;20055;-67
2022/09/24 09:22:47;;;;;;;8.25;5.68;;;;;;;28.62;78.99;97966.06;5001161;28;20049;-67
2022/09/24 09:25:42;;;;;;;8.68;5.43;;;;;;;28.66;80.00;97966.16;5005008;28;20049;-66
2022/09/24 09:28:19;;;;;;;5.57;4.60;;;;;;;28.36;80.42;97957.41;5004941;28;20053;-67
2022/09/24 09:31:19;;;;;;;5.65;4.47;;;;;;;28.15;81.35;97955.63;5005413;28;20373;-66
2022/09/24 09:34:00;;;;;;;6.18;4.82;;;;;;;28.37;80.71;97956.25;5017648;28;20056;-67
2022/09/24 09:37:11;;;;;;;6.65;4.75;;;;;;;28.31;80.98;97955.69;5025666;28;20484;-67
2022/09/24 09:40:32;;;;;;;5.82;4.25;;;;;;;28.43;80.95;97950.16;5008083;28;20057;-67
2022/09/24 09:43:17;;;;;;;6.85;4.72;;;;;;;28.27;81.99;97947.31;5024828;28;20049;-67
2022/09/24 09:46:28;;;;;;;5.18;4.30;;;;;;;28.00;82.89;97937.06;5022024;28;20492;-66
2022/09/24 09:49:06;;;;;;;4.28;3.55;;;;;;;28.32;82.23;97935.22;5024815;28;20191;-67
2022/09/24 09:52:01;;;;;;;5.78;3.60;;;;;;;28.22;81.17;97932.94;5020547;28;20128;-67
2022/09/24 09:54:45;;;;;;;5.32;3.53;;;;;;;28.53;81.49;97937.81;5005055;28;20129;-67
2022/09/24 09:57:40;;;;;;;7.47;3.80;;;;;;;28.17;81.66;97924.94;5004122;28;20057;-67
2022/09/24 10:00:25;;;;;;;5.47;3.72;;;;;;;28.30;80.80;97932.03;4999239;28;20061;-66
2022/09/24 10:03:39;;;;;;;4.35;3.50;;;;;;;27.88;82.13;97924.91;5005363;28;20053;-67
2022/09/24 10:06:28;;;;;;;6.88;3.80;;;;;;;27.99;82.52;97924.41;5005218;28;20089;-67
2022/09/24 10:09:19;;;;;;;4.10;3.38;;;;;;;27.56;83.76;97926.63;5005072;28;20045;-65
2022/09/24 10:12:20;;;;;;;5.28;3.92;;;;;;;27.77;83.47;97918.22;4988808;28;20042;-67
2022/09/24 10:15:23;;;;;;;6.07;3.90;;;;;;;27.75;82.98;97915.00;4985731;28;20058;-66
2022/09/24 10:18:00;;;;;;;5.75;4.18;;;;;;;27.70;83.29;97909.72;4986047;28;20822;-66
2022/09/24 10:20:56;;;;;;;4.70;3.75;;;;;;;28.18;82.91;97916.28;4986505;28;20050;-68
2022/09/24 10:23:41;;;;;;;4.82;3.70;;;;;;;27.77;82.16;97909.16;4986691;28;20470;-67
2022/09/24 10:26:42;;;;;;;5.68;4.03;;;;;;;27.84;81.49;97912.94;4988427;28;20136;-66
2022/09/24 10:32:39;;;;;;;5.97;4.55;;;;;;;27.98;81.56;97906.25;5006079;28;20050;-69
2022/09/24 10:35:42;;;;;;;4.85;4.35;;;;;;;28.16;80.42;97899.28;4988252;28;20046;-67
2022/09/24 10:38:32;;;;;;;7.50;5.07;;;;;;;27.64;81.41;97898.13;4999048;28;20046;-67
2022/09/24 10:41:40;;;;;;;6.32;5.25;;;;;;;27.95;80.47;97893.16;5004086;28;20081;-67
2022/09/24 10:44:42;;;;;;;5.97;4.93;;;;;;;28.19;79.29;97892.28;5008797;28;20100;-66
2022/09/24 10:47:53;;;;;;;6.77;4.93;;;;;;;27.68;80.06;97899.03;4659148;28;10000021;-68
2022/09/24 10:51:02;;;;;;;6.85;5.10;;;;;;;27.91;79.79;97891.09;4645066;28;10000304;-66
2022/09/24 10:53:47;;;;;;;8.77;5.47;;;;;;;27.87;79.69;97884.63;5005068;28;20077;-65
2022/09/24 10:56:46;;;;;;;7.85;4.88;;;;;;;27.80;80.09;97889.97;5004544;28;20049;-66
2022/09/24 11:00:10;;;;;;;5.45;4.63;;;;;;;27.98;79.77;97881.44;5001844;28;20849;-64
2022/09/24 11:03:29;;;;;;;7.32;5.50;;;;;;;27.84;79.58;97866.06;4910440;29;20491;-66
2022/09/24 11:06:45;;;;;;;5.80;4.65;;;;;;;27.97;79.58;97866.81;4915676;29;20051;-65
2022/09/24 11:09:43;;;;;;;6.00;4.75;;;;;;;27.86;78.13;97860.16;4998646;28;20046;-67
2022/09/24 11:13:15;;;;;;;6.55;3.90;;;;;;;28.12;76.87;97862.53;4995078;28;20120;-66
2022/09/24 11:16:44;;;;;;;7.55;4.60;;;;;;;27.65;78.19;97852.06;4944494;29;20055;-66
2022/09/24 11:19:41;;;;;;;7.25;4.93;;;;;;;27.77;77.90;97846.53;4947555;28;20054;-67
2022/09/24 11:23:27;;;;;;;5.85;4.18;;;;;;;27.71;77.48;97837.72;5002017;28;20060;-67
2022/09/24 11:26:39;;;;;;;5.55;4.05;;;;;;;27.99;77.21;97831.44;5003255;28;20544;-67
2022/09/24 11:30:12;;;;;;;6.30;4.10;;;;;;;27.68;76.58;97832.88;5003826;28;20492;-67
2022/09/24 11:33:06;;;;;;;5.15;3.83;;;;;;;27.50;77.89;97826.06;5004421;28;20042;-67
2022/09/24 11:36:23;;;;;;;7.88;3.72;;;;;;;27.25;78.34;97814.28;5003158;28;20042;-67
2022/09/24 11:39:24;;;;;;;6.65;3.75;;;;;;;27.40;77.63;97824.59;5003522;28;20054;-66
2022/09/24 11:42:18;;;;;;;6.57;3.85;;;;;;;27.11;78.41;97812.66;5003918;28;20065;-66
2022/09/24 11:45:09;;;;;;;6.10;3.75;;;;;;;27.52;79.02;97816.28;5005251;28;20078;-67
2022/09/24 11:48:18;;;;;;;6.47;3.72;;;;;;;27.63;77.16;97813.84;5005905;28;20450;-67
2022/09/24 11:51:45;;;;;;;4.75;3.95;;;;;;;27.44;78.43;97816.41;5003068;28;20125;-67
2022/09/24 11:54:53;;;;;;;4.43;4.03;;;;;;;27.72;78.12;97819.19;4998712;28;20058;-67
2022/09/24 11:58:12;;;;;;;7.82;4.03;;;;;;;27.78;78.25;97817.78;4978714;28;20449;-66
2022/09/24 12:00:56;;;;;;;7.60;4.38;;;;;;;27.58;77.96;97811.31;4990143;28;20060;-65
2022/09/24 12:04:03;;;;;;;5.50;4.10;;;;;;;27.72;77.45;97813.69;5007200;28;20070;-66
2022/09/24 12:06:55;;;;;;;5.95;4.28;;;;;;;27.62;78.71;97816.94;4992134;28;20050;-66
2022/09/24 12:09:52;;;;;;;4.97;4.10;;;;;;;27.51;78.47;97817.41;5006881;28;20056;-65
2022/09/24 12:12:49;;;;;;;4.80;4.20;;;;;;;27.65;78.71;97824.50;4972565;28;20050;-67
2022/09/24 12:15:42;;;;;;;6.13;4.75;;;;;;;27.34;79.03;97824.00;4971558;28;20133;-65
2022/09/24 12:18:34;;;;;;;6.70;4.38;;;;;;;27.72;79.26;97820.03;4986942;28;20058;-69
2022/09/24 12:21:25;;;;;;;6.68;4.60;;;;;;;27.65;78.90;97811.53;4987741;28;20046;-68
2022/09/24 12:24:43;;;;;;;6.18;4.82;;;;;;;27.66;78.44;97818.66;4990153;28;20050;-67
2022/09/24 12:27:36;;;;;;;8.13;4.85;;;;;;;27.73;78.36;97815.31;5006135;28;20049;-65
2022/09/24 12:34:00;;;;;;;7.80;4.65;;;;;;;27.45;78.73;97813.28;5008750;28;20690;-65
2022/09/24 12:37:09;;;;;;;7.53;5.43;;;;;;;27.64;79.44;97809.13;5026156;28;20515;-66
2022/09/24 12:40:26;;;;;;;6.28;5.00;;;;;;;27.73;78.81;97809.78;5025139;28;20059;-65
2022/09/24 12:43:23;;;;;;;7.22;5.38;;;;;;;27.38;80.04;97813.09;4988170;28;20050;-65
2022/09/24 12:46:28;;;;;;;10.23;5.70;;;;;;;27.43;79.97;97815.59;4987054;28;20065;-66
2022/09/24 12:49:16;;;;;;;8.13;6.32;;;;;;;27.62;79.35;97814.19;4987497;28;20081;-65
2022/09/24 12:52:33;;;;;;;9.05;5.88;;;;;;;27.52;80.43;97813.53;4992495;28;20093;-66
2022/09/24 12:55:25;;;;;;;8.35;5.85;;;;;;;27.64;80.09;97815.44;5005909;28;20137;-67
2022/09/24 12:58:42;;;;;;;8.77;5.95;;;;;;;27.68;79.93;97821.06;4935670;28;20046;-66
2022/09/24 13:01:24;;;;;;;8.55;6.07;;;;;;;27.28;81.80;97822.63;4934608;28;20094;-66
2022/09/24 13:04:23;;;;;;;10.30;6.07;;;;;;;27.10;82.12;97822.03;4958578;28;20105;-65
2022/09/24 13:06:59;;;;;;;7.47;5.85;;;;;;;26.63;83.33;97827.19;4983763;28;20144;-66
2022/09/24 13:09:55;;;;;;;7.13;5.68;;;;;;;26.93;82.89;97830.53;4987098;28;20050;-69
2022/09/24 13:12:32;;;;;;;5.68;4.53;;;;;;;26.75;83.18;97829.94;4985850;28;20070;-68
2022/09/24 13:15:45;;;;;;;8.93;4.85;;;;;;;26.84;82.21;97832.59;4986406;28;20061;-67
2022/09/24 13:18:23;;;;;;;6.05;4.03;;;;;;;26.23;83.75;97825.78;4968263;28;20222;-67
2022/09/24 13:21:30;;;;;;;5.75;3.70;;;;;;;26.78;82.44;97823.75;4968168;28;20050;-68
2022/09/24 13:24:11;;;;;;;5.22;3.88;;;;;;;26.84;80.95;97827.09;4984450;28;20047;-68
2022/09/24 13:27:37;;;;;;;5.65;3.53;;;;;;;26.88;81.01;97833.50;4970057;28;20050;-66
2022/09/24 13:30:19;;;;;;;7.72;3.70;;;;;;;26.64;81.74;97829.59;4978331;28;20388;-67
2022/09/24 13:33:22;;;;;;;6.75;3.80;;;;;;;26.85;81.92;97835.00;4969741;28;20054;-68
2022/09/24 13:36:10;;;;;;;7.88;4.50;;;;;;;26.34;82.39;97837.19;4987012;28;20127;-68
2022/09/24 13:39:40;;;;;;;5.38;4.15;;;;;;;26.50;81.66;97846.41;4965468;28;20777;-68
2022/09/24 13:42:47;;;;;;;6.50;4.22;;;;;;;26.54;81.64;97830.00;4973427;28;20061;-70
2022/09/24 13:45:31;;;;;;;5.88;4.20;;;;;;;26.66;80.43;97832.81;4969902;28;20062;-70
2022/09/24 13:48:43;;;;;;;6.03;4.35;;;;;;;26.46;81.16;97839.16;4948056;28;20050;-66
2022/09/24 13:51:27;;;;;;;5.68;4.05;;;;;;;26.22;82.35;97840.69;4986654;28;20557;-66